sensor_id;sensor_type;location;lat;lon;timestamp;P1;durP1;ratioP1;P2;durP2;ratioP2
31818;SDS011;18384;48.860;9.188;2022-11-11T00:01:05;16.30;;;6.22;;
31818;SDS011;18384;48.860;9.188;2022-11-11T00:03:37;15.13;;;6.45;;
31818;SDS011;18384;48.860;9.188;2022-11-11T00:06:03;12.13;;;7.53;;
31818;SDS011;18384;48.860;9.188;2022-11-11T00:08:33;15.55;;;7.03;;
31818;SDS011;18384;48.860;9.188;2022-11-11T00:13:31;18.60;;;9.45;;
31818;SDS011;18384;48.860;9.188;2022-11-11T00:16:05;17.08;;;7.70;;
31818;SDS011;18384;48.860;9.188;2022-11-11T00:18:34;17.27;;;7.18;;
31818;SDS011;18384;48.860;9.188;2022-11-11T00:21:19;15.95;;;7.60;;
31818;SDS011;18384;48.860;9.188;2022-11-11T00:24:04;15.80;;;7.45;;
31818;SDS011;18384;48.860;9.188;2022-11-11T00:27:13;20.67;;;7.50;;
31818;SDS011;18384;48.860;9.188;2022-11-11T00:29:44;17.12;;;7.20;;
31818;SDS011;18384;48.860;9.188;2022-11-11T00:32:11;20.12;;;7.55;;
31818;SDS011;18384;48.860;9.188;2022-11-11T00:34:55;18.45;;;7.43;;
31818;SDS011;18384;48.860;9.188;2022-11-11T00:37:42;15.93;;;7.35;;
31818;SDS011;18384;48.860;9.188;2022-11-11T00:40:10;18.45;;;7.18;;
31818;SDS011;18384;48.860;9.188;2022-11-11T00:42:37;15.55;;;7.30;;
31818;SDS011;18384;48.860;9.188;2022-11-11T00:45:04;12.27;;;6.65;;
31818;SDS011;18384;48.860;9.188;2022-11-11T00:47:31;17.30;;;7.97;;
31818;SDS011;18384;48.860;9.188;2022-11-11T00:50:17;22.05;;;7.12;;
31818;SDS011;18384;48.860;9.188;2022-11-11T00:53:10;21.60;;;8.35;;
31818;SDS011;18384;48.860;9.188;2022-11-11T00:55:39;13.88;;;7.18;;
31818;SDS011;18384;48.860;9.188;2022-11-11T00:58:06;15.23;;;7.32;;
31818;SDS011;18384;48.860;9.188;2022-11-11T01:00:32;11.65;;;6.82;;
31818;SDS011;18384;48.860;9.188;2022-11-11T01:05:25;14.35;;;7.25;;
31818;SDS011;18384;48.860;9.188;2022-11-11T01:07:51;19.75;;;7.35;;
31818;SDS011;18384;48.860;9.188;2022-11-11T01:10:18;16.65;;;7.78;;
31818;SDS011;18384;48.860;9.188;2022-11-11T01:13:03;17.17;;;7.22;;
31818;SDS011;18384;48.860;9.188;2022-11-11T01:15:40;18.55;;;7.55;;
31818;SDS011;18384;48.860;9.188;2022-11-11T01:18:11;11.68;;;6.60;;
31818;SDS011;18384;48.860;9.188;2022-11-11T01:20:40;15.07;;;6.50;;
31818;SDS011;18384;48.860;9.188;2022-11-11T01:23:08;20.30;;;7.75;;
31818;SDS011;18384;48.860;9.188;2022-11-11T01:25:36;17.12;;;6.85;;
31818;SDS011;18384;48.860;9.188;2022-11-11T01:28:05;14.75;;;7.15;;
31818;SDS011;18384;48.860;9.188;2022-11-11T01:30:33;17.00;;;7.10;;
31818;SDS011;18384;48.860;9.188;2022-11-11T01:33:00;15.75;;;7.72;;
31818;SDS011;18384;48.860;9.188;2022-11-11T01:35:27;16.87;;;7.18;;
31818;SDS011;18384;48.860;9.188;2022-11-11T01:37:55;17.62;;;7.25;;
31818;SDS011;18384;48.860;9.188;2022-11-11T01:40:22;15.90;;;6.57;;
31818;SDS011;18384;48.860;9.188;2022-11-11T01:42:52;12.48;;;6.72;;
31818;SDS011;18384;48.860;9.188;2022-11-11T01:46:25;21.17;;;8.27;;
31818;SDS011;18384;48.860;9.188;2022-11-11T01:52:25;13.27;;;6.82;;
31818;SDS011;18384;48.860;9.188;2022-11-11T01:55:00;15.52;;;7.28;;
31818;SDS011;18384;48.860;9.188;2022-11-11T01:57:40;12.45;;;6.97;;
31818;SDS011;18384;48.860;9.188;2022-11-11T02:00:18;16.52;;;7.32;;
31818;SDS011;18384;48.860;9.188;2022-11-11T02:02:56;17.40;;;8.10;;
31818;SDS011;18384;48.860;9.188;2022-11-11T02:05:28;20.52;;;7.78;;
31818;SDS011;18384;48.860;9.188;2022-11-11T02:08:26;16.65;;;7.25;;
31818;SDS011;18384;48.860;9.188;2022-11-11T02:10:58;15.77;;;7.65;;
31818;SDS011;18384;48.860;9.188;2022-11-11T02:13:29;12.37;;;6.78;;
31818;SDS011;18384;48.860;9.188;2022-11-11T02:16:14;16.48;;;7.60;;
31818;SDS011;18384;48.860;9.188;2022-11-11T02:18:41;16.12;;;7.45;;
31818;SDS011;18384;48.860;9.188;2022-11-11T02:21:09;15.40;;;6.85;;
31818;SDS011;18384;48.860;9.188;2022-11-11T02:23:45;17.25;;;7.87;;
31818;SDS011;18384;48.860;9.188;2022-11-11T02:26:29;20.33;;;7.00;;
31818;SDS011;18384;48.860;9.188;2022-11-11T02:28:57;16.58;;;7.68;;
31818;SDS011;18384;48.860;9.188;2022-11-11T02:31:27;17.70;;;7.07;;
31818;SDS011;18384;48.860;9.188;2022-11-11T02:33:55;23.25;;;7.05;;
31818;SDS011;18384;48.860;9.188;2022-11-11T02:36:21;21.92;;;6.68;;
31818;SDS011;18384;48.860;9.188;2022-11-11T02:38:48;17.35;;;7.18;;
31818;SDS011;18384;48.860;9.188;2022-11-11T02:41:15;13.70;;;7.45;;
31818;SDS011;18384;48.860;9.188;2022-11-11T02:44:00;13.88;;;6.72;;
31818;SDS011;18384;48.860;9.188;2022-11-11T02:46:26;13.77;;;6.68;;
31818;SDS011;18384;48.860;9.188;2022-11-11T02:48:52;14.00;;;7.55;;
31818;SDS011;18384;48.860;9.188;2022-11-11T02:51:18;13.02;;;6.40;;
31818;SDS011;18384;48.860;9.188;2022-11-11T02:53:44;13.60;;;6.05;;
31818;SDS011;18384;48.860;9.188;2022-11-11T02:56:10;15.73;;;6.72;;
31818;SDS011;18384;48.860;9.188;2022-11-11T02:58:37;14.57;;;7.25;;
31818;SDS011;18384;48.860;9.188;2022-11-11T03:01:03;18.05;;;6.95;;
31818;SDS011;18384;48.860;9.188;2022-11-11T03:03:29;11.80;;;6.95;;
31818;SDS011;18384;48.860;9.188;2022-11-11T03:05:55;19.15;;;7.57;;
31818;SDS011;18384;48.860;9.188;2022-11-11T03:08:21;16.23;;;7.87;;
31818;SDS011;18384;48.860;9.188;2022-11-11T03:10:47;12.93;;;7.20;;
31818;SDS011;18384;48.860;9.188;2022-11-11T03:13:13;10.75;;;6.90;;
31818;SDS011;18384;48.860;9.188;2022-11-11T03:15:40;12.15;;;7.32;;
31818;SDS011;18384;48.860;9.188;2022-11-11T03:18:07;14.10;;;7.60;;
31818;SDS011;18384;48.860;9.188;2022-11-11T03:20:33;12.35;;;7.28;;
31818;SDS011;18384;48.860;9.188;2022-11-11T03:23:18;12.88;;;7.18;;
31818;SDS011;18384;48.860;9.188;2022-11-11T03:25:45;15.70;;;6.78;;
31818;SDS011;18384;48.860;9.188;2022-11-11T03:28:16;16.52;;;7.15;;
31818;SDS011;18384;48.860;9.188;2022-11-11T03:30:45;13.07;;;7.37;;
31818;SDS011;18384;48.860;9.188;2022-11-11T03:33:13;16.77;;;7.45;;
31818;SDS011;18384;48.860;9.188;2022-11-11T03:35:40;21.30;;;8.32;;
31818;SDS011;18384;48.860;9.188;2022-11-11T03:38:09;18.35;;;8.75;;
31818;SDS011;18384;48.860;9.188;2022-11-11T03:40:49;20.27;;;7.85;;
31818;SDS011;18384;48.860;9.188;2022-11-11T03:43:19;17.30;;;8.45;;
31818;SDS011;18384;48.860;9.188;2022-11-11T03:45:48;18.25;;;9.00;;
31818;SDS011;18384;48.860;9.188;2022-11-11T03:48:15;18.05;;;9.23;;
31818;SDS011;18384;48.860;9.188;2022-11-11T03:50:41;18.15;;;8.93;;
31818;SDS011;18384;48.860;9.188;2022-11-11T03:53:07;16.67;;;9.07;;
31818;SDS011;18384;48.860;9.188;2022-11-11T03:55:33;18.30;;;9.52;;
31818;SDS011;18384;48.860;9.188;2022-11-11T03:57:59;27.17;;;9.05;;
31818;SDS011;18384;48.860;9.188;2022-11-11T04:00:26;22.67;;;9.20;;
31818;SDS011;18384;48.860;9.188;2022-11-11T04:03:12;17.70;;;8.80;;
31818;SDS011;18384;48.860;9.188;2022-11-11T04:08:47;18.92;;;8.68;;
31818;SDS011;18384;48.860;9.188;2022-11-11T04:11:37;16.58;;;10.52;;
31818;SDS011;18384;48.860;9.188;2022-11-11T04:14:09;17.98;;;8.45;;
31818;SDS011;18384;48.860;9.188;2022-11-11T04:16:56;36.03;;;16.30;;
31818;SDS011;18384;48.860;9.188;2022-11-11T04:19:22;27.55;;;13.20;;
31818;SDS011;18384;48.860;9.188;2022-11-11T04:22:07;22.50;;;10.68;;
31818;SDS011;18384;48.860;9.188;2022-11-11T04:27:18;14.07;;;8.45;;
31818;SDS011;18384;48.860;9.188;2022-11-11T04:29:45;14.77;;;8.27;;
31818;SDS011;18384;48.860;9.188;2022-11-11T04:32:13;13.52;;;8.23;;
31818;SDS011;18384;48.860;9.188;2022-11-11T04:35:00;21.33;;;8.93;;
31818;SDS011;18384;48.860;9.188;2022-11-11T04:37:44;14.95;;;8.35;;
31818;SDS011;18384;48.860;9.188;2022-11-11T04:40:16;14.43;;;7.35;;
31818;SDS011;18384;48.860;9.188;2022-11-11T04:43:00;12.60;;;7.18;;
31818;SDS011;18384;48.860;9.188;2022-11-11T04:45:27;15.23;;;7.75;;
31818;SDS011;18384;48.860;9.188;2022-11-11T04:47:58;15.10;;;7.82;;
31818;SDS011;18384;48.860;9.188;2022-11-11T04:50:36;16.67;;;7.55;;
31818;SDS011;18384;48.860;9.188;2022-11-11T04:53:05;10.32;;;6.68;;
31818;SDS011;18384;48.860;9.188;2022-11-11T04:55:37;15.93;;;7.28;;
31818;SDS011;18384;48.860;9.188;2022-11-11T04:58:25;10.80;;;6.85;;
31818;SDS011;18384;48.860;9.188;2022-11-11T05:00:54;11.35;;;7.05;;
31818;SDS011;18384;48.860;9.188;2022-11-11T05:03:20;11.75;;;6.40;;
31818;SDS011;18384;48.860;9.188;2022-11-11T05:05:50;13.98;;;6.50;;
31818;SDS011;18384;48.860;9.188;2022-11-11T05:08:37;13.65;;;7.32;;
31818;SDS011;18384;48.860;9.188;2022-11-11T05:11:21;11.50;;;7.30;;
31818;SDS011;18384;48.860;9.188;2022-11-11T05:14:04;13.25;;;6.65;;
31818;SDS011;18384;48.860;9.188;2022-11-11T05:16:51;10.63;;;6.05;;
31818;SDS011;18384;48.860;9.188;2022-11-11T05:19:40;11.93;;;5.85;;
31818;SDS011;18384;48.860;9.188;2022-11-11T05:22:26;13.80;;;7.30;;
31818;SDS011;18384;48.860;9.188;2022-11-11T05:25:03;10.05;;;6.68;;
31818;SDS011;18384;48.860;9.188;2022-11-11T05:27:51;11.60;;;6.55;;
31818;SDS011;18384;48.860;9.188;2022-11-11T05:30:19;11.27;;;6.68;;
31818;SDS011;18384;48.860;9.188;2022-11-11T05:32:46;10.10;;;6.05;;
31818;SDS011;18384;48.860;9.188;2022-11-11T05:35:13;8.80;;;6.28;;
31818;SDS011;18384;48.860;9.188;2022-11-11T05:37:40;12.32;;;6.28;;
31818;SDS011;18384;48.860;9.188;2022-11-11T05:40:07;13.80;;;6.03;;
31818;SDS011;18384;48.860;9.188;2022-11-11T05:42:35;13.55;;;7.10;;
31818;SDS011;18384;48.860;9.188;2022-11-11T05:45:06;19.10;;;7.05;;
31818;SDS011;18384;48.860;9.188;2022-11-11T05:47:33;13.77;;;6.78;;
31818;SDS011;18384;48.860;9.188;2022-11-11T05:49:59;13.52;;;6.97;;
31818;SDS011;18384;48.860;9.188;2022-11-11T05:52:25;10.65;;;6.80;;
31818;SDS011;18384;48.860;9.188;2022-11-11T05:54:51;11.48;;;6.32;;
31818;SDS011;18384;48.860;9.188;2022-11-11T05:57:18;12.13;;;6.00;;
31818;SDS011;18384;48.860;9.188;2022-11-11T05:59:44;11.27;;;6.43;;
31818;SDS011;18384;48.860;9.188;2022-11-11T06:02:12;11.82;;;6.05;;
31818;SDS011;18384;48.860;9.188;2022-11-11T06:04:38;9.02;;;6.10;;
31818;SDS011;18384;48.860;9.188;2022-11-11T06:07:04;11.68;;;5.53;;
31818;SDS011;18384;48.860;9.188;2022-11-11T06:09:30;11.43;;;6.45;;
31818;SDS011;18384;48.860;9.188;2022-11-11T06:11:56;12.40;;;6.12;;
31818;SDS011;18384;48.860;9.188;2022-11-11T06:14:23;13.38;;;5.72;;
31818;SDS011;18384;48.860;9.188;2022-11-11T06:16:49;8.73;;;5.50;;
31818;SDS011;18384;48.860;9.188;2022-11-11T06:19:15;8.88;;;5.70;;
31818;SDS011;18384;48.860;9.188;2022-11-11T06:21:41;12.60;;;5.62;;
31818;SDS011;18384;48.860;9.188;2022-11-11T06:24:22;11.65;;;5.50;;
31818;SDS011;18384;48.860;9.188;2022-11-11T06:29:14;9.82;;;5.70;;
31818;SDS011;18384;48.860;9.188;2022-11-11T06:31:40;13.30;;;6.03;;
31818;SDS011;18384;48.860;9.188;2022-11-11T06:34:06;14.77;;;5.72;;
31818;SDS011;18384;48.860;9.188;2022-11-11T06:36:32;11.48;;;6.28;;
31818;SDS011;18384;48.860;9.188;2022-11-11T06:38:59;11.45;;;5.45;;
31818;SDS011;18384;48.860;9.188;2022-11-11T06:41:25;11.30;;;5.78;;
31818;SDS011;18384;48.860;9.188;2022-11-11T06:43:51;10.77;;;5.70;;
31818;SDS011;18384;48.860;9.188;2022-11-11T06:46:21;11.23;;;6.18;;
31818;SDS011;18384;48.860;9.188;2022-11-11T06:48:49;12.32;;;5.12;;
31818;SDS011;18384;48.860;9.188;2022-11-11T06:51:15;9.98;;;5.47;;
31818;SDS011;18384;48.860;9.188;2022-11-11T06:53:42;13.85;;;6.68;;
31818;SDS011;18384;48.860;9.188;2022-11-11T06:56:08;7.43;;;5.18;;
31818;SDS011;18384;48.860;9.188;2022-11-11T06:58:37;13.05;;;5.75;;
31818;SDS011;18384;48.860;9.188;2022-11-11T07:01:04;14.32;;;6.35;;
31818;SDS011;18384;48.860;9.188;2022-11-11T07:03:31;17.67;;;6.32;;
31818;SDS011;18384;48.860;9.188;2022-11-11T07:06:01;16.35;;;8.48;;
31818;SDS011;18384;48.860;9.188;2022-11-11T07:08:28;13.07;;;7.78;;
31818;SDS011;18384;48.860;9.188;2022-11-11T07:10:55;14.30;;;7.90;;
31818;SDS011;18384;48.860;9.188;2022-11-11T07:15:47;15.68;;;7.03;;
31818;SDS011;18384;48.860;9.188;2022-11-11T07:18:13;10.30;;;6.20;;
31818;SDS011;18384;48.860;9.188;2022-11-11T07:20:39;13.88;;;6.93;;
31818;SDS011;18384;48.860;9.188;2022-11-11T07:23:06;12.57;;;6.75;;
31818;SDS011;18384;48.860;9.188;2022-11-11T07:25:32;14.15;;;6.40;;
31818;SDS011;18384;48.860;9.188;2022-11-11T07:27:58;12.65;;;7.72;;
31818;SDS011;18384;48.860;9.188;2022-11-11T07:32:51;14.82;;;6.65;;
31818;SDS011;18384;48.860;9.188;2022-11-11T07:35:18;19.70;;;7.25;;
31818;SDS011;18384;48.860;9.188;2022-11-11T07:37:46;13.50;;;6.68;;
31818;SDS011;18384;48.860;9.188;2022-11-11T07:40:13;11.60;;;6.43;;
31818;SDS011;18384;48.860;9.188;2022-11-11T07:42:41;14.27;;;6.53;;
31818;SDS011;18384;48.860;9.188;2022-11-11T07:45:08;15.90;;;6.72;;
31818;SDS011;18384;48.860;9.188;2022-11-11T07:47:36;12.50;;;6.45;;
31818;SDS011;18384;48.860;9.188;2022-11-11T07:50:03;14.95;;;5.87;;
31818;SDS011;18384;48.860;9.188;2022-11-11T07:52:31;14.32;;;6.10;;
31818;SDS011;18384;48.860;9.188;2022-11-11T07:57:23;13.30;;;6.28;;
31818;SDS011;18384;48.860;9.188;2022-11-11T07:59:49;11.80;;;5.05;;
31818;SDS011;18384;48.860;9.188;2022-11-11T08:02:15;8.63;;;5.07;;
31818;SDS011;18384;48.860;9.188;2022-11-11T08:07:08;16.10;;;4.93;;
31818;SDS011;18384;48.860;9.188;2022-11-11T08:09:34;10.80;;;5.75;;
31818;SDS011;18384;48.860;9.188;2022-11-11T08:12:00;8.77;;;5.12;;
31818;SDS011;18384;48.860;9.188;2022-11-11T08:14:44;10.57;;;5.43;;
31818;SDS011;18384;48.860;9.188;2022-11-11T08:17:10;13.57;;;6.55;;
31818;SDS011;18384;48.860;9.188;2022-11-11T08:19:37;11.63;;;6.90;;
31818;SDS011;18384;48.860;9.188;2022-11-11T08:22:03;13.18;;;6.15;;
31818;SDS011;18384;48.860;9.188;2022-11-11T08:24:30;10.15;;;5.22;;
31818;SDS011;18384;48.860;9.188;2022-11-11T08:26:56;10.95;;;5.93;;
31818;SDS011;18384;48.860;9.188;2022-11-11T08:29:22;14.82;;;6.30;;
31818;SDS011;18384;48.860;9.188;2022-11-11T08:31:50;11.23;;;6.62;;
31818;SDS011;18384;48.860;9.188;2022-11-11T08:34:17;10.27;;;5.80;;
31818;SDS011;18384;48.860;9.188;2022-11-11T08:36:43;13.25;;;5.43;;
31818;SDS011;18384;48.860;9.188;2022-11-11T08:39:09;10.80;;;6.40;;
31818;SDS011;18384;48.860;9.188;2022-11-11T08:41:36;18.87;;;5.93;;
31818;SDS011;18384;48.860;9.188;2022-11-11T08:44:02;12.73;;;5.53;;
31818;SDS011;18384;48.860;9.188;2022-11-11T08:46:29;13.98;;;5.30;;
31818;SDS011;18384;48.860;9.188;2022-11-11T08:48:55;8.93;;;5.43;;
31818;SDS011;18384;48.860;9.188;2022-11-11T08:51:21;13.35;;;5.87;;
31818;SDS011;18384;48.860;9.188;2022-11-11T08:53:47;10.48;;;6.80;;
31818;SDS011;18384;48.860;9.188;2022-11-11T08:56:13;13.85;;;5.68;;
31818;SDS011;18384;48.860;9.188;2022-11-11T08:58:39;13.45;;;5.45;;
31818;SDS011;18384;48.860;9.188;2022-11-11T09:01:09;12.68;;;5.68;;
31818;SDS011;18384;48.860;9.188;2022-11-11T09:03:37;9.65;;;5.62;;
31818;SDS011;18384;48.860;9.188;2022-11-11T09:06:07;12.85;;;6.05;;
31818;SDS011;18384;48.860;9.188;2022-11-11T09:08:35;9.93;;;5.85;;
31818;SDS011;18384;48.860;9.188;2022-11-11T09:11:01;11.07;;;5.45;;
31818;SDS011;18384;48.860;9.188;2022-11-11T09:13:27;20.35;;;6.12;;
31818;SDS011;18384;48.860;9.188;2022-11-11T09:15:53;15.80;;;6.87;;
31818;SDS011;18384;48.860;9.188;2022-11-11T09:18:19;13.25;;;6.40;;
31818;SDS011;18384;48.860;9.188;2022-11-11T09:20:46;11.00;;;6.57;;
31818;SDS011;18384;48.860;9.188;2022-11-11T09:23:12;12.00;;;6.47;;
31818;SDS011;18384;48.860;9.188;2022-11-11T09:25:38;20.17;;;5.85;;
31818;SDS011;18384;48.860;9.188;2022-11-11T09:28:04;9.57;;;5.62;;
31818;SDS011;18384;48.860;9.188;2022-11-11T09:30:30;12.73;;;5.75;;
31818;SDS011;18384;48.860;9.188;2022-11-11T09:33:00;12.30;;;4.95;;
31818;SDS011;18384;48.860;9.188;2022-11-11T09:35:27;15.20;;;6.82;;
31818;SDS011;18384;48.860;9.188;2022-11-11T09:37:57;8.93;;;5.10;;
31818;SDS011;18384;48.860;9.188;2022-11-11T09:40:25;12.80;;;4.90;;
31818;SDS011;18384;48.860;9.188;2022-11-11T09:49:30;9.95;;;5.22;;
31818;SDS011;18384;48.860;9.188;2022-11-11T09:55:41;12.27;;;5.15;;
31818;SDS011;18384;48.860;9.188;2022-11-11T09:58:18;16.90;;;5.25;;
31818;SDS011;18384;48.860;9.188;2022-11-11T10:00:52;13.00;;;4.85;;
31818;SDS011;18384;48.860;9.188;2022-11-11T10:05:56;13.02;;;5.03;;
31818;SDS011;18384;48.860;9.188;2022-11-11T10:08:36;9.80;;;4.97;;
31818;SDS011;18384;48.860;9.188;2022-11-11T10:11:15;9.52;;;4.72;;
31818;SDS011;18384;48.860;9.188;2022-11-11T10:13:52;12.07;;;4.70;;
31818;SDS011;18384;48.860;9.188;2022-11-11T10:26:04;8.52;;;4.43;;
31818;SDS011;18384;48.860;9.188;2022-11-11T10:28:39;8.90;;;4.65;;
31818;SDS011;18384;48.860;9.188;2022-11-11T10:31:13;10.57;;;4.37;;
31818;SDS011;18384;48.860;9.188;2022-11-11T10:33:58;9.38;;;4.47;;
31818;SDS011;18384;48.860;9.188;2022-11-11T10:36:33;9.93;;;4.40;;
31818;SDS011;18384;48.860;9.188;2022-11-11T10:39:10;8.87;;;4.40;;
31818;SDS011;18384;48.860;9.188;2022-11-11T10:41:47;13.52;;;5.32;;
31818;SDS011;18384;48.860;9.188;2022-11-11T10:44:22;9.85;;;4.97;;
31818;SDS011;18384;48.860;9.188;2022-11-11T10:47:13;8.50;;;5.22;;
31818;SDS011;18384;48.860;9.188;2022-11-11T10:50:15;8.85;;;4.90;;
31818;SDS011;18384;48.860;9.188;2022-11-11T10:53:24;12.52;;;4.85;;
31818;SDS011;18384;48.860;9.188;2022-11-11T10:57:12;8.05;;;4.72;;
31818;SDS011;18384;48.860;9.188;2022-11-11T10:59:59;26.00;;;5.25;;
31818;SDS011;18384;48.860;9.188;2022-11-11T11:02:38;9.80;;;5.22;;
31818;SDS011;18384;48.860;9.188;2022-11-11T11:05:45;21.08;;;4.80;;
31818;SDS011;18384;48.860;9.188;2022-11-11T11:14:29;9.68;;;4.57;;
31818;SDS011;18384;48.860;9.188;2022-11-11T11:17:09;12.00;;;5.28;;
31818;SDS011;18384;48.860;9.188;2022-11-11T11:20:14;12.52;;;4.55;;
31818;SDS011;18384;48.860;9.188;2022-11-11T11:22:51;8.10;;;4.37;;
31818;SDS011;18384;48.860;9.188;2022-11-11T11:25:30;10.93;;;4.90;;
31818;SDS011;18384;48.860;9.188;2022-11-11T11:28:12;8.43;;;4.57;;
31818;SDS011;18384;48.860;9.188;2022-11-11T11:30:39;11.23;;;5.05;;
31818;SDS011;18384;48.860;9.188;2022-11-11T11:36:20;9.68;;;4.70;;
31818;SDS011;18384;48.860;9.188;2022-11-11T11:41:35;14.52;;;4.85;;
31818;SDS011;18384;48.860;9.188;2022-11-11T11:50:38;8.40;;;4.90;;
31818;SDS011;18384;48.860;9.188;2022-11-11T11:54:09;11.30;;;4.50;;
31818;SDS011;18384;48.860;9.188;2022-11-11T12:00:45;13.23;;;4.53;;
31818;SDS011;18384;48.860;9.188;2022-11-11T12:07:10;7.37;;;4.60;;
31818;SDS011;18384;48.860;9.188;2022-11-11T12:11:55;9.40;;;4.82;;
31818;SDS011;18384;48.860;9.188;2022-11-11T12:15:27;9.48;;;4.70;;
31818;SDS011;18384;48.860;9.188;2022-11-11T12:18:25;7.37;;;3.53;;
31818;SDS011;18384;48.860;9.188;2022-11-11T12:22:11;10.88;;;5.00;;
31818;SDS011;18384;48.860;9.188;2022-11-11T12:30:03;16.05;;;5.00;;
31818;SDS011;18384;48.860;9.188;2022-11-11T12:32:46;11.77;;;4.62;;
31818;SDS011;18384;48.860;9.188;2022-11-11T12:37:41;10.15;;;4.05;;
31818;SDS011;18384;48.860;9.188;2022-11-11T12:45:30;6.95;;;3.92;;
31818;SDS011;18384;48.860;9.188;2022-11-11T12:48:26;9.65;;;4.45;;
31818;SDS011;18384;48.860;9.188;2022-11-11T13:16:59;7.20;;;3.80;;
31818;SDS011;18384;48.860;9.188;2022-11-11T13:19:43;9.98;;;5.28;;
31818;SDS011;18384;48.860;9.188;2022-11-11T13:24:07;6.20;;;3.40;;
31818;SDS011;18384;48.860;9.188;2022-11-11T13:26:47;8.60;;;3.05;;
31818;SDS011;18384;48.860;9.188;2022-11-11T13:30:27;10.95;;;3.65;;
31818;SDS011;18384;48.860;9.188;2022-11-11T13:35:08;9.40;;;3.15;;
31818;SDS011;18384;48.860;9.188;2022-11-11T13:37:45;7.50;;;3.10;;
31818;SDS011;18384;48.860;9.188;2022-11-11T13:40:22;7.80;;;3.00;;
31818;SDS011;18384;48.860;9.188;2022-11-11T13:42:59;6.20;;;2.85;;
31818;SDS011;18384;48.860;9.188;2022-11-11T13:45:32;5.15;;;2.60;;
31818;SDS011;18384;48.860;9.188;2022-11-11T13:48:03;4.68;;;2.25;;
31818;SDS011;18384;48.860;9.188;2022-11-11T13:50:35;6.03;;;2.03;;
31818;SDS011;18384;48.860;9.188;2022-11-11T13:53:04;5.35;;;2.45;;
31818;SDS011;18384;48.860;9.188;2022-11-11T13:55:37;4.95;;;2.55;;
31818;SDS011;18384;48.860;9.188;2022-11-11T13:58:07;5.25;;;1.80;;
31818;SDS011;18384;48.860;9.188;2022-11-11T14:00:59;5.62;;;2.35;;
31818;SDS011;18384;48.860;9.188;2022-11-11T14:03:29;5.25;;;2.17;;
31818;SDS011;18384;48.860;9.188;2022-11-11T14:12:33;5.47;;;2.15;;
31818;SDS011;18384;48.860;9.188;2022-11-11T14:15:03;5.28;;;2.67;;
31818;SDS011;18384;48.860;9.188;2022-11-11T14:17:32;10.40;;;2.45;;
31818;SDS011;18384;48.860;9.188;2022-11-11T14:20:31;5.60;;;2.72;;
31818;SDS011;18384;48.860;9.188;2022-11-11T14:23:22;4.70;;;2.25;;
31818;SDS011;18384;48.860;9.188;2022-11-11T14:26:21;5.20;;;2.70;;
31818;SDS011;18384;48.860;9.188;2022-11-11T14:28:54;8.15;;;2.92;;
31818;SDS011;18384;48.860;9.188;2022-11-11T14:31:28;6.53;;;2.75;;
31818;SDS011;18384;48.860;9.188;2022-11-11T14:59:35;10.93;;;4.10;;
31818;SDS011;18384;48.860;9.188;2022-11-11T15:02:03;9.43;;;2.70;;
31818;SDS011;18384;48.860;9.188;2022-11-11T15:04:59;15.18;;;2.75;;
31818;SDS011;18384;48.860;9.188;2022-11-11T15:07:41;6.82;;;2.65;;
31818;SDS011;18384;48.860;9.188;2022-11-11T15:26:03;11.48;;;3.05;;
31818;SDS011;18384;48.860;9.188;2022-11-11T15:29:02;5.25;;;2.40;;
31818;SDS011;18384;48.860;9.188;2022-11-11T15:35:30;6.80;;;3.30;;
31818;SDS011;18384;48.860;9.188;2022-11-11T15:45:20;7.22;;;3.35;;
31818;SDS011;18384;48.860;9.188;2022-11-11T15:47:56;10.55;;;3.80;;
31818;SDS011;18384;48.860;9.188;2022-11-11T15:53:12;13.95;;;5.03;;
31818;SDS011;18384;48.860;9.188;2022-11-11T15:55:50;10.30;;;5.10;;
31818;SDS011;18384;48.860;9.188;2022-11-11T15:58:25;15.57;;;6.68;;
31818;SDS011;18384;48.860;9.188;2022-11-11T16:00:54;22.02;;;6.50;;
31818;SDS011;18384;48.860;9.188;2022-11-11T16:03:30;19.45;;;7.57;;
31818;SDS011;18384;48.860;9.188;2022-11-11T16:06:06;13.48;;;5.68;;
31818;SDS011;18384;48.860;9.188;2022-11-11T16:08:39;14.68;;;5.32;;
31818;SDS011;18384;48.860;9.188;2022-11-11T16:11:12;12.77;;;5.22;;
31818;SDS011;18384;48.860;9.188;2022-11-11T16:13:45;12.82;;;5.97;;
31818;SDS011;18384;48.860;9.188;2022-11-11T16:16:33;12.40;;;5.43;;
31818;SDS011;18384;48.860;9.188;2022-11-11T16:19:24;13.40;;;5.12;;
31818;SDS011;18384;48.860;9.188;2022-11-11T16:22:00;12.77;;;5.65;;
31818;SDS011;18384;48.860;9.188;2022-11-11T16:24:32;12.40;;;5.97;;
31818;SDS011;18384;48.860;9.188;2022-11-11T16:27:05;11.40;;;5.35;;
31818;SDS011;18384;48.860;9.188;2022-11-11T16:29:33;10.43;;;4.97;;
31818;SDS011;18384;48.860;9.188;2022-11-11T16:36:20;14.45;;;6.78;;
31818;SDS011;18384;48.860;9.188;2022-11-11T16:38:46;20.55;;;6.65;;
31818;SDS011;18384;48.860;9.188;2022-11-11T16:41:29;12.25;;;6.50;;
31818;SDS011;18384;48.860;9.188;2022-11-11T16:43:59;14.18;;;6.78;;
31818;SDS011;18384;48.860;9.188;2022-11-11T16:46:38;13.98;;;7.18;;
31818;SDS011;18384;48.860;9.188;2022-11-11T16:49:24;17.17;;;8.07;;
31818;SDS011;18384;48.860;9.188;2022-11-11T16:52:08;18.98;;;9.77;;
31818;SDS011;18384;48.860;9.188;2022-11-11T16:54:50;20.33;;;8.70;;
31818;SDS011;18384;48.860;9.188;2022-11-11T16:57:25;20.77;;;8.48;;
31818;SDS011;18384;48.860;9.188;2022-11-11T17:00:00;22.08;;;8.38;;
31818;SDS011;18384;48.860;9.188;2022-11-11T17:02:29;16.95;;;8.23;;
31818;SDS011;18384;48.860;9.188;2022-11-11T17:04:56;26.17;;;10.07;;
31818;SDS011;18384;48.860;9.188;2022-11-11T17:07:30;18.02;;;8.63;;
31818;SDS011;18384;48.860;9.188;2022-11-11T17:10:11;27.08;;;10.70;;
31818;SDS011;18384;48.860;9.188;2022-11-11T17:12:50;26.12;;;11.48;;
31818;SDS011;18384;48.860;9.188;2022-11-11T17:15:19;25.20;;;8.85;;
31818;SDS011;18384;48.860;9.188;2022-11-11T17:17:46;22.40;;;10.00;;
31818;SDS011;18384;48.860;9.188;2022-11-11T17:20:13;28.55;;;12.68;;
31818;SDS011;18384;48.860;9.188;2022-11-11T17:22:53;20.12;;;10.70;;
31818;SDS011;18384;48.860;9.188;2022-11-11T17:25:21;23.62;;;10.70;;
31818;SDS011;18384;48.860;9.188;2022-11-11T17:27:47;24.33;;;10.27;;
31818;SDS011;18384;48.860;9.188;2022-11-11T17:30:13;20.02;;;10.20;;
31818;SDS011;18384;48.860;9.188;2022-11-11T17:32:40;21.40;;;9.77;;
31818;SDS011;18384;48.860;9.188;2022-11-11T17:35:06;18.48;;;9.70;;
31818;SDS011;18384;48.860;9.188;2022-11-11T17:37:36;17.60;;;9.98;;
31818;SDS011;18384;48.860;9.188;2022-11-11T17:40:04;24.15;;;12.00;;
31818;SDS011;18384;48.860;9.188;2022-11-11T17:42:32;23.05;;;12.00;;
31818;SDS011;18384;48.860;9.188;2022-11-11T17:44:59;23.73;;;12.25;;
31818;SDS011;18384;48.860;9.188;2022-11-11T17:47:25;20.65;;;12.18;;
31818;SDS011;18384;48.860;9.188;2022-11-11T17:49:51;19.08;;;10.88;;
31818;SDS011;18384;48.860;9.188;2022-11-11T17:52:17;20.40;;;11.43;;
31818;SDS011;18384;48.860;9.188;2022-11-11T17:54:43;22.00;;;12.80;;
31818;SDS011;18384;48.860;9.188;2022-11-11T17:57:09;32.67;;;13.68;;
31818;SDS011;18384;48.860;9.188;2022-11-11T17:59:36;24.52;;;12.20;;
31818;SDS011;18384;48.860;9.188;2022-11-11T18:02:02;22.62;;;13.80;;
31818;SDS011;18384;48.860;9.188;2022-11-11T18:04:28;27.17;;;12.00;;
31818;SDS011;18384;48.860;9.188;2022-11-11T18:06:54;22.60;;;13.40;;
31818;SDS011;18384;48.860;9.188;2022-11-11T18:09:20;28.52;;;13.15;;
31818;SDS011;18384;48.860;9.188;2022-11-11T18:11:46;22.40;;;12.15;;
31818;SDS011;18384;48.860;9.188;2022-11-11T18:14:12;24.85;;;13.60;;
31818;SDS011;18384;48.860;9.188;2022-11-11T18:16:42;28.90;;;12.88;;
31818;SDS011;18384;48.860;9.188;2022-11-11T18:19:09;32.85;;;13.88;;